Pagina principale
METAR-TAF:

METAR-TAF

Aeroporti :

Aeroporto di Roma-Urbe

Roma, Italia

latitudine: 41-57N, longitudine: 012-30E, altezza: 18 m

Osservazione

Il bollettino è stato emesso 49 minuti fa, alle 15:50 UTC
Vento 9 kt da ovest
Temperature 23°C
Umidità 50%
Pressione 1013 hPa
Visibilità 10 km o più
Nubi sparse ad un'altezza di 3000 ft, Cumulo congesto.

METAR: LIRU 311550Z 26009KT 9999 SCT030TCU 23/12 Q1013

Ora: 18:39 (16:39 UTC)

Previsione

Il bollettino è stato emesso 2 ore e 39 minuti fa, alle 14:00 UTC
Previsione valida dal 31 alle 15 UTC al 31 alle 24 UTC
Vento 5 kt da direzioni variabili
Visibilità 10 km o più
Nubi sparse ad un'altezza di 3000 ft
Temporaneamente
dal 31 alle 15 UTC al 31 alle 17 UTC
temporale, pioggia

TAF: LIRU 311400Z 3115/3124 VRB05KT 9999 SCT030 TEMPO 3115/3117 TSRA

Osservazioni e previsioni meteorologiche di più di 4000 aeroporti (messaggi METAR e TAF).

Le stazioni disponibili sono rappresentate dai dischi gialli e rossi sulla carta.

Puntare il mouse per vedere il nome della stazione.

Clicca sopra per visualizzare le osservazioni e previsioni meteorologiche.

Per cambiare la mappa : fare clic sui pulsanti verdi con una croce nera per ingrandire, il pulsante verde con un trattino per diminuire, o sulla freccia verde per le mappe adiacenti.


METAR-TAF: